createdAt,value
2023-02-11T00:02:11.902Z,99.90
2023-02-11T00:04:39.966Z,99.90
2023-02-11T00:07:07.941Z,99.90
2023-02-11T00:09:38.820Z,99.90
2023-02-11T00:12:07.710Z,99.90
2023-02-11T00:14:35.741Z,99.90
2023-02-11T00:17:03.971Z,99.90
2023-02-11T00:22:07.902Z,99.90
2023-02-11T00:24:37.578Z,99.90
2023-02-11T00:27:05.532Z,99.90
2023-02-11T00:29:33.633Z,99.90
2023-02-11T00:32:05.186Z,99.90
2023-02-11T00:34:34.068Z,99.90
2023-02-11T00:37:02.105Z,99.90
2023-02-11T00:39:30.263Z,99.90
2023-02-11T00:41:59.970Z,99.90
2023-02-11T00:44:27.935Z,99.90
2023-02-11T10:58:29.671Z,99.50
2023-02-11T11:01:00.203Z,95.20
2023-02-11T11:03:40.753Z,95.10
2023-02-11T11:06:11.132Z,94.60
2023-02-11T11:08:42.903Z,94.20
2023-02-11T11:11:13.083Z,93.60
2023-02-11T11:13:47.853Z,92.70
2023-02-11T11:16:25.391Z,92.10
2023-02-11T11:18:55.587Z,91.80
2023-02-11T11:21:25.429Z,91.70
2023-02-11T11:23:59.337Z,91.70
2023-02-11T11:26:29.394Z,91.40
2023-02-11T11:29:08.797Z,91.40
2023-02-11T11:31:48.635Z,90.40
2023-02-11T11:34:24.223Z,90.10
2023-02-11T11:36:52.391Z,88.10
2023-02-11T11:39:25.532Z,86.60
2023-02-11T11:41:57.385Z,86.50
2023-02-11T11:44:30.203Z,84.90
2023-02-11T11:47:18.128Z,84.00
2023-02-11T11:49:52.264Z,83.30
2023-02-11T11:52:27.056Z,83.00
2023-02-11T11:55:03.885Z,83.80
2023-02-11T11:57:33.303Z,83.20
2023-02-11T12:00:02.947Z,83.30
2023-02-11T12:03:29.991Z,82.20
2023-02-11T12:06:16.257Z,82.70
2023-02-11T12:08:55.219Z,83.10
2023-02-11T12:11:31.600Z,82.90
2023-02-11T12:14:13.133Z,83.30
2023-02-11T12:16:53.069Z,85.00
2023-02-11T12:19:39.906Z,84.50
2023-02-11T12:22:12.668Z,84.60
2023-02-11T12:24:54.316Z,84.70
2023-02-11T12:27:35.028Z,84.50
2023-02-11T12:30:14.885Z,83.40
2023-02-11T12:32:55.861Z,84.30
2023-02-11T12:35:37.089Z,84.40
2023-02-11T12:38:24.171Z,84.50
2023-02-11T12:41:03.013Z,82.90
2023-02-11T12:43:37.481Z,82.50
2023-02-11T12:46:35.089Z,83.40
2023-02-11T12:49:23.947Z,84.00
2023-02-11T12:52:04.148Z,84.20
2023-02-11T12:54:38.164Z,84.60
2023-02-11T12:57:12.712Z,84.20
2023-02-11T12:59:50.237Z,84.70
2023-02-11T13:02:29.017Z,84.50
2023-02-11T13:05:03.207Z,84.20
2023-02-11T13:07:36.074Z,83.60
2023-02-11T13:10:08.542Z,83.70
2023-02-11T13:12:55.613Z,84.20
2023-02-11T13:15:23.963Z,83.70
2023-02-11T13:18:01.003Z,85.10
2023-02-11T13:20:41.520Z,85.40
2023-02-11T13:23:20.105Z,85.10
2023-02-11T13:25:54.265Z,85.60
2023-02-11T13:28:35.971Z,86.00
2023-02-11T13:31:07.767Z,87.00
2023-02-11T13:33:37.879Z,87.70
2023-02-11T13:36:16.847Z,87.60
2023-02-11T13:38:58.198Z,87.40
2023-02-11T13:41:31.348Z,86.70
2023-02-11T13:44:01.936Z,87.20
2023-02-11T13:46:49.917Z,86.40
2023-02-11T13:49:26.656Z,85.60
2023-02-11T13:51:58.002Z,83.60
2023-02-11T13:54:33.504Z,83.10
2023-02-11T13:57:26.283Z,82.90
2023-02-11T13:59:56.612Z,82.20
2023-02-11T14:02:51.921Z,82.40
2023-02-11T14:05:55.849Z,82.60
2023-02-11T14:08:43.886Z,82.40
2023-02-11T14:11:50.924Z,82.60
2023-02-11T14:14:24.449Z,80.00
2023-02-11T14:17:31.274Z,80.30
2023-02-11T14:20:00.292Z,79.70
2023-02-11T14:22:32.026Z,80.20
2023-02-11T14:25:01.873Z,81.40
2023-02-11T14:27:37.658Z,81.90
2023-02-11T14:30:23.418Z,83.70
2023-02-11T14:33:18.226Z,83.90
2023-02-11T14:36:00.278Z,84.30
2023-02-11T14:38:40.862Z,85.20
2023-02-11T14:41:12.501Z,86.00
2023-02-11T14:43:45.279Z,87.00
2023-02-11T14:46:13.797Z,87.30
2023-02-11T14:48:46.643Z,86.80
2023-02-11T14:51:17.481Z,87.60
2023-02-11T14:53:54.274Z,88.20
2023-02-11T14:56:24.779Z,88.30
2023-02-11T14:58:55.957Z,89.00
2023-02-11T15:01:29.038Z,89.30
2023-02-11T15:03:58.993Z,90.10
2023-02-11T15:06:30.974Z,90.30
2023-02-11T15:09:01.809Z,90.30
2023-02-11T15:11:33.183Z,90.70
2023-02-11T15:14:09.958Z,90.70
2023-02-11T15:16:43.454Z,91.30
2023-02-11T15:19:21.080Z,91.40
2023-02-11T15:21:50.624Z,91.40
2023-02-11T15:24:26.173Z,91.40
2023-02-11T15:26:58.634Z,91.70
2023-02-11T15:29:29.038Z,91.80
2023-02-11T15:32:16.006Z,92.10
2023-02-11T15:34:44.839Z,92.40
2023-02-11T15:37:15.943Z,92.60
2023-02-11T15:39:44.256Z,92.80
2023-02-11T15:42:24.283Z,93.20
2023-02-11T15:45:11.739Z,93.40
2023-02-11T15:47:40.755Z,93.70
2023-02-11T15:50:20.383Z,93.80
2023-02-11T15:52:49.241Z,94.00
2023-02-11T15:55:18.468Z,94.20
2023-02-11T15:57:47.731Z,94.40
2023-02-11T16:00:21.753Z,94.50
2023-02-11T16:02:50.919Z,94.60
2023-02-11T16:05:31.640Z,94.70
2023-02-11T16:08:01.454Z,95.10
2023-02-11T16:10:31.499Z,95.30
2023-02-11T16:13:05.268Z,95.40
2023-02-11T16:15:52.334Z,95.60
2023-02-11T16:18:38.730Z,95.80
2023-02-11T16:21:13.280Z,95.80
2023-02-11T16:23:43.188Z,96.00
2023-02-11T16:26:22.022Z,95.90
2023-02-11T16:28:50.384Z,95.90
2023-02-11T16:31:20.536Z,96.00
2023-02-11T16:33:48.639Z,96.20
2023-02-11T16:36:18.310Z,96.40
2023-02-11T16:38:46.357Z,96.30
2023-02-11T16:41:14.924Z,96.50
2023-02-11T16:43:42.801Z,96.80
2023-02-11T16:46:15.026Z,96.90
2023-02-11T16:48:44.815Z,96.90
2023-02-11T16:51:13.451Z,97.00
2023-02-11T16:53:41.686Z,97.00
2023-02-11T16:56:15.617Z,97.60
2023-02-11T16:58:44.095Z,98.10
2023-02-11T17:01:14.105Z,97.90
2023-02-11T17:03:43.972Z,97.90
2023-02-11T17:06:14.586Z,97.90
2023-02-11T17:08:42.517Z,98.60
2023-02-11T17:11:10.734Z,98.40
2023-02-11T17:13:39.456Z,98.50
2023-02-11T17:16:12.474Z,98.30
2023-02-11T17:18:40.429Z,98.30
2023-02-11T17:21:08.874Z,98.50
2023-02-11T17:23:38.720Z,98.50
2023-02-11T17:26:07.103Z,98.60
2023-02-11T17:28:35.617Z,98.80
2023-02-11T17:31:08.845Z,98.90
2023-02-11T17:33:38.769Z,99.00
2023-02-11T17:36:08.308Z,99.10
2023-02-11T17:38:38.301Z,99.40
2023-02-11T17:41:06.661Z,99.30
2023-02-11T17:43:34.874Z,99.50
2023-02-11T17:46:06.182Z,99.80
2023-02-11T17:48:34.462Z,99.90
2023-02-11T17:51:02.365Z,99.90
2023-02-11T17:53:30.388Z,99.90
2023-02-11T17:55:59.832Z,99.90
2023-02-11T17:58:27.905Z,99.90
2023-02-11T18:00:59.405Z,99.90
2023-02-11T18:03:27.403Z,99.90
2023-02-11T18:05:55.336Z,99.90
2023-02-11T18:08:23.253Z,99.90
2023-02-11T18:10:51.567Z,99.90
2023-02-11T18:13:20.784Z,99.90
2023-02-11T18:15:49.151Z,99.90
2023-02-11T18:18:17.758Z,99.90
2023-02-11T18:20:46.755Z,99.90
2023-02-11T18:23:15.147Z,99.90
2023-02-11T18:25:43.522Z,99.90
2023-02-11T18:28:11.563Z,99.90
2023-02-11T18:30:40.888Z,99.90
2023-02-11T18:33:12.185Z,99.90
2023-02-11T18:35:40.399Z,99.90
2023-02-11T18:38:08.801Z,99.90
2023-02-11T18:40:39.952Z,99.90
2023-02-11T18:43:08.265Z,99.90
2023-02-11T18:45:36.272Z,99.90
2023-02-11T18:48:06.879Z,99.90
2023-02-11T18:50:34.945Z,99.90
2023-02-11T18:53:03.209Z,99.90
2023-02-11T18:55:31.604Z,99.90
2023-02-11T18:58:00.099Z,99.90
2023-02-11T19:00:28.204Z,99.90
2023-02-11T19:02:56.154Z,99.90
2023-02-11T19:05:28.736Z,99.90
2023-02-11T19:07:57.795Z,99.90
2023-02-11T19:10:26.219Z,99.90
2023-02-11T19:12:56.609Z,99.90
2023-02-11T19:15:24.572Z,99.90
2023-02-11T19:17:53.141Z,99.90
2023-02-11T19:20:21.223Z,99.90
2023-02-11T19:22:50.653Z,99.90
2023-02-11T19:25:19.448Z,99.90
2023-02-11T19:27:47.754Z,99.90
2023-02-11T19:30:16.101Z,99.90
2023-02-11T19:32:44.118Z,99.90
2023-02-11T19:35:12.168Z,99.90
2023-02-11T19:37:40.059Z,99.90
2023-02-11T19:40:11.270Z,99.90
2023-02-11T19:42:39.240Z,99.90
2023-02-11T19:45:07.632Z,99.90
2023-02-11T19:47:35.860Z,99.90
2023-02-11T19:50:03.842Z,99.90
2023-02-11T19:52:31.858Z,99.90
2023-02-11T19:55:00.380Z,99.90
2023-02-11T19:57:29.698Z,99.90
2023-02-11T19:59:57.931Z,99.90
2023-02-11T20:02:25.919Z,99.90
2023-02-11T20:04:54.133Z,99.90
2023-02-11T20:07:22.071Z,99.90
2023-02-11T20:09:50.253Z,99.90
2023-02-11T20:12:18.154Z,99.90
2023-02-11T20:14:47.474Z,99.90
2023-02-11T20:17:15.790Z,99.90
2023-02-11T20:19:43.721Z,99.90
2023-02-11T20:22:12.506Z,99.90
2023-02-11T20:24:40.492Z,99.90
2023-02-11T20:27:11.377Z,99.90
2023-02-11T20:29:39.804Z,99.90
2023-02-11T20:32:10.830Z,99.90
2023-02-11T20:34:38.889Z,99.90
2023-02-11T20:37:08.298Z,99.90
2023-02-11T20:39:37.406Z,99.90
2023-02-11T20:42:05.564Z,99.90
2023-02-11T20:44:33.439Z,99.90
2023-02-11T20:47:01.506Z,99.90
2023-02-11T20:49:31.332Z,99.90
2023-02-11T20:51:59.458Z,99.90
2023-02-11T20:54:27.462Z,99.90
2023-02-11T20:56:57.085Z,99.90
2023-02-11T20:59:25.685Z,99.90
2023-02-11T21:01:56.396Z,99.90
2023-02-11T21:04:26.157Z,99.90
2023-02-11T21:06:57.991Z,99.90
2023-02-11T21:09:28.602Z,99.90
2023-02-11T21:11:57.400Z,99.90
2023-02-11T21:14:26.971Z,99.90
2023-02-11T21:16:55.358Z,99.90
2023-02-11T21:19:23.549Z,99.90
2023-02-11T21:21:51.697Z,99.90
2023-02-11T21:24:21.044Z,99.90
2023-02-11T21:26:49.120Z,99.90
2023-02-11T21:29:17.146Z,99.90
2023-02-11T21:31:45.101Z,99.90
2023-02-11T21:34:13.339Z,99.90
2023-02-11T21:36:41.263Z,99.90
2023-02-11T21:39:09.357Z,99.90
2023-02-11T21:41:39.197Z,99.90
2023-02-11T21:44:07.230Z,99.90
2023-02-11T21:46:35.313Z,99.90
2023-02-11T21:49:03.329Z,99.90
2023-02-11T21:51:31.486Z,99.90
2023-02-11T21:54:01.962Z,99.90
2023-02-11T21:56:31.072Z,99.90
2023-02-11T21:59:01.280Z,99.90
2023-02-11T22:01:31.070Z,99.90
2023-02-11T22:03:59.664Z,99.90
2023-02-11T22:06:31.309Z,99.90
2023-02-11T22:08:59.593Z,99.90
2023-02-11T22:11:27.591Z,99.90
2023-02-11T22:13:57.723Z,99.90
2023-02-11T22:16:28.203Z,99.90
2023-02-11T22:18:58.486Z,99.90
2023-02-11T22:21:26.742Z,99.90
2023-02-11T22:23:56.352Z,99.90
2023-02-11T22:26:26.530Z,99.90
2023-02-11T22:28:54.915Z,99.90
2023-02-11T22:31:25.386Z,99.90
2023-02-11T22:33:55.084Z,99.90
2023-02-11T22:36:25.318Z,99.90
2023-02-11T22:38:54.207Z,99.90
2023-02-11T22:41:23.028Z,99.90
2023-02-11T22:43:50.994Z,99.90
2023-02-11T22:46:20.569Z,99.90
2023-02-11T22:48:49.267Z,99.90
2023-02-11T22:51:20.788Z,99.90
2023-02-11T22:53:53.003Z,99.90
2023-02-11T22:56:21.085Z,99.90
2023-02-11T22:58:49.908Z,99.90
2023-02-11T23:01:18.758Z,99.90
2023-02-11T23:03:47.329Z,99.90
2023-02-11T23:06:15.581Z,99.90
2023-02-11T23:08:45.408Z,99.90
2023-02-11T23:11:15.502Z,99.90
2023-02-11T23:13:45.359Z,99.90
2023-02-11T23:16:16.543Z,99.90
2023-02-11T23:18:46.104Z,99.90
2023-02-11T23:21:17.111Z,99.90
2023-02-11T23:23:46.869Z,99.90
2023-02-11T23:26:18.380Z,99.90
2023-02-11T23:28:47.672Z,99.90
2023-02-11T23:31:20.580Z,99.90
2023-02-11T23:33:49.253Z,99.90
2023-02-11T23:36:18.168Z,99.90
2023-02-11T23:38:48.219Z,99.90
2023-02-11T23:41:17.371Z,99.90
2023-02-11T23:43:45.426Z,99.90
2023-02-11T23:46:13.407Z,99.90
2023-02-11T23:48:41.516Z,99.90
2023-02-11T23:51:10.566Z,99.90
2023-02-11T23:53:38.982Z,99.90
2023-02-11T23:56:10.531Z,99.90
2023-02-11T23:58:38.600Z,99.90
